Time;durP1;ratioP1;P1;durP2;ratioP2;P2;SDS_P1;SDS_P2;PMS_P1;PMS_P2;Temp;Humidity;BMP_temperature;BMP_pressure;BME280_temperature;BME280_humidity;BME280_pressure;Samples;Min_cycle;Max_cycle;Signal;HPM_P1;HPM_P2
2022/01/23 00:00:18;;;;;;;11.25;4.57;;;8.00;98.20;;;;;;5079216;28;20434;-48
2022/01/23 00:02:46;;;;;;;9.63;4.40;;;7.90;98.20;;;;;;5082813;28;20114;-48
2022/01/23 00:05:11;;;;;;;6.97;3.83;;;8.00;98.20;;;;;;5076090;28;20634;-48
2022/01/23 00:07:39;;;;;;;14.48;4.95;;;7.90;98.20;;;;;;5078215;28;20130;-48
2022/01/23 00:10:05;;;;;;;9.73;4.18;;;8.00;98.20;;;;;;5078481;28;20105;-48
2022/01/23 00:12:37;;;;;;;14.13;5.25;;;8.00;98.20;;;;;;5078329;28;20047;-48
2022/01/23 00:17:47;;;;;;;12.68;5.22;;;8.00;98.20;;;;;;5062165;28;20036;-48
2022/01/23 00:20:13;;;;;;;8.68;3.95;;;8.00;98.20;;;;;;5059464;28;20350;-48
2022/01/23 00:22:44;;;;;;;12.68;4.47;;;8.00;98.20;;;;;;5060379;28;20029;-48
2022/01/23 00:30:42;;;;;;;9.90;4.75;;;8.00;98.20;;;;;;5060055;28;20071;-48
2022/01/23 00:33:09;;;;;;;8.82;4.50;;;8.00;98.20;;;;;;5061003;28;20021;-48
2022/01/23 00:35:36;;;;;;;5.95;3.47;;;8.00;98.20;;;;;;5061961;28;20021;-48
2022/01/23 00:38:05;;;;;;;4.75;2.85;;;7.90;98.20;;;;;;5064887;28;20060;-48
2022/01/23 00:40:32;;;;;;;7.03;4.07;;;7.90;98.20;;;;;;5062788;28;20017;-48
2022/01/23 00:42:58;;;;;;;6.85;3.50;;;8.00;98.20;;;;;;5063456;28;20073;-48
2022/01/23 00:45:41;;;;;;;7.10;3.50;;;7.90;98.20;;;;;;5060396;28;20040;-48
2022/01/23 00:48:08;;;;;;;7.18;3.50;;;7.90;98.20;;;;;;5065578;28;20025;-48
2022/01/23 00:50:40;;;;;;;6.97;3.85;;;7.90;98.20;;;;;;5062059;28;20036;-48
2022/01/23 00:53:09;;;;;;;9.30;3.78;;;8.00;98.30;;;;;;5062486;28;20021;-48
2022/01/23 00:55:36;;;;;;;5.38;3.10;;;7.90;98.20;;;;;;5059606;28;20052;-48
2022/01/23 00:58:02;;;;;;;4.90;3.13;;;8.00;98.20;;;;;;5063027;28;20066;-48
2022/01/23 01:00:28;;;;;;;9.38;3.50;;;7.90;98.20;;;;;;5061158;28;20457;-48
2022/01/23 01:02:55;;;;;;;5.88;3.25;;;8.00;98.20;;;;;;5059234;28;20564;-48
2022/01/23 01:05:21;;;;;;;4.78;2.88;;;8.00;98.20;;;;;;5063205;28;20478;-48
2022/01/23 01:07:47;;;;;;;8.45;3.28;;;8.00;98.20;;;;;;5059093;28;20065;-48
2022/01/23 01:10:21;;;;;;;3.90;2.63;;;8.00;98.20;;;;;;5063547;28;20410;-48
2022/01/23 01:12:50;;;;;;;6.95;2.95;;;8.00;98.20;;;;;;5061563;28;20465;-48
2022/01/23 01:31:27;;;;;;;4.65;2.53;;;7.90;98.30;;;;;;5058660;28;20089;-48
2022/01/23 01:33:59;;;;;;;6.07;2.80;;;7.90;98.20;;;;;;5064821;28;20021;-48
2022/01/23 01:39:08;;;;;;;5.55;3.00;;;7.90;98.30;;;;;;5063087;28;20155;-47
2022/01/23 01:41:36;;;;;;;6.50;3.20;;;8.00;98.30;;;;;;5059360;28;20108;-48
2022/01/23 01:44:02;;;;;;;8.90;3.10;;;7.90;98.30;;;;;;5058178;28;20029;-48
2022/01/23 01:46:29;;;;;;;4.80;2.78;;;7.90;98.20;;;;;;5062760;28;20036;-48
2022/01/23 01:48:55;;;;;;;4.97;2.83;;;7.90;98.20;;;;;;5061754;28;20481;-48
2022/01/23 01:51:20;;;;;;;5.53;3.45;;;8.00;98.30;;;;;;5059872;28;20033;-48
2022/01/23 01:53:53;;;;;;;4.88;3.00;;;7.90;98.50;;;;;;5060597;28;20439;-48
2022/01/23 01:56:19;;;;;;;4.32;2.58;;;7.90;98.30;;;;;;5062360;28;20071;-48
2022/01/23 01:59:11;;;;;;;5.78;3.25;;;7.90;98.20;;;;;;5061551;28;20086;-48
2022/01/23 02:17:27;;;;;;;10.82;3.92;;;7.90;98.30;;;;;;5063650;28;20028;-48
2022/01/23 02:55:26;;;;;;;7.25;2.92;;;7.90;98.30;;;;;;5061948;28;20039;-48
2022/01/23 02:57:57;;;;;;;6.07;3.17;;;7.90;98.30;;;;;;5059501;28;20033;-48
2022/01/23 03:00:26;;;;;;;5.57;2.65;;;7.90;98.30;;;;;;5055542;28;20029;-48
2022/01/23 03:03:00;;;;;;;6.38;3.22;;;7.90;98.30;;;;;;5059358;28;20116;-48
2022/01/23 03:11:01;;;;;;;4.55;3.13;;;7.90;98.30;;;;;;5084403;28;20170;-48
2022/01/23 03:13:49;;;;;;;6.05;3.00;;;7.90;98.30;;;;;;5076364;28;20020;-48
2022/01/23 03:24:04;;;;;;;5.15;2.58;;;7.90;98.30;;;;;;5078344;28;20181;-48
2022/01/23 03:24:47;;;;;;;4.53;2.78;;;7.90;98.30;;;;;;5079670;28;20077;-48
2022/01/23 03:30:13;;;;;;;4.50;2.78;;;7.90;98.60;;;;;;5080764;28;20035;-48
2022/01/23 03:32:43;;;;;;;;;;;7.90;98.30;;;;;;5078908;28;20036;-48
2022/01/23 03:35:09;;;;;;;6.88;3.25;;;7.90;98.30;;;;;;5077368;28;20361;-48
2022/01/23 03:37:35;;;;;;;8.98;2.75;;;7.90;98.30;;;;;;5077311;28;20020;-48
2022/01/23 03:40:01;;;;;;;4.97;3.08;;;7.90;98.30;;;;;;5080338;28;20083;-48
2022/01/23 03:42:28;;;;;;;3.40;2.53;;;7.90;98.30;;;;;;5077955;28;20024;-48
2022/01/23 03:45:16;;;;;;;5.05;3.13;;;7.90;98.30;;;;;;5078698;28;20055;-48
2022/01/23 03:47:41;;;;;;;5.07;3.22;;;7.90;98.30;;;;;;5067854;28;20432;-48
2022/01/23 03:50:11;;;;;;;7.40;3.75;;;7.90;98.30;;;;;;5058411;28;20111;-48
2022/01/23 03:52:37;;;;;;;6.85;3.85;;;7.90;98.30;;;;;;5059116;28;20029;-48
2022/01/23 03:55:04;;;;;;;8.23;4.15;;;7.90;98.30;;;;;;5059664;28;20025;-48
2022/01/23 03:57:30;;;;;;;6.78;3.38;;;7.90;98.30;;;;;;5060105;28;20453;-48
2022/01/23 03:59:55;;;;;;;6.22;3.42;;;7.90;98.40;;;;;;5058657;28;20036;-48
2022/01/23 04:02:21;;;;;;;7.20;2.92;;;7.90;98.30;;;;;;5053715;28;20052;-48
2022/01/23 04:04:47;;;;;;;8.68;3.50;;;7.90;98.30;;;;;;5060855;28;20028;-48
2022/01/23 04:07:18;;;;;;;5.70;3.17;;;7.90;98.30;;;;;;5059198;28;20048;-48
2022/01/23 04:09:45;;;;;;;5.97;3.13;;;7.90;98.30;;;;;;5060390;28;20040;-48
2022/01/23 04:12:23;;;;;;;5.97;3.15;;;7.90;98.40;;;;;;5057208;28;20037;-48
2022/01/23 04:14:56;;;;;;;7.32;3.47;;;7.90;98.30;;;;;;5059163;28;20573;-48
2022/01/23 04:20:34;;;;;;;5.07;2.75;;;7.90;98.40;;;;;;5060762;28;20028;-48
2022/01/23 05:01:04;;;;;;;7.05;2.80;;;7.90;98.40;;;;;;5052901;28;20095;-48
2022/01/23 05:04:05;;;;;;;9.13;2.58;;;7.90;98.40;;;;;;5056692;28;20084;-48
2022/01/23 05:06:25;;;;;;;4.30;2.75;;;7.90;98.40;;;;;;5059360;28;20033;-48
2022/01/23 05:08:52;;;;;;;5.18;2.80;;;7.90;98.40;;;;;;5059074;28;20539;-48
2022/01/23 05:11:18;;;;;;;9.93;2.80;;;7.90;98.40;;;;;;5054816;28;20036;-48
2022/01/23 05:13:44;;;;;;;5.88;3.17;;;7.90;98.40;;;;;;5059440;28;20417;-48
2022/01/23 05:16:11;;;;;;;7.90;3.22;;;7.90;98.40;;;;;;5056846;28;20035;-48
2022/01/23 05:18:37;;;;;;;6.47;3.20;;;7.90;98.40;;;;;;5059879;28;20361;-47
2022/01/23 05:21:23;;;;;;;5.68;2.97;;;7.90;98.40;;;;;;5060692;28;20052;-48
2022/01/23 05:23:48;;;;;;;5.05;2.83;;;7.90;98.40;;;;;;5064464;28;20111;-48
2022/01/23 05:26:14;;;;;;;4.20;2.83;;;7.90;98.40;;;;;;5063055;28;20124;-48
2022/01/23 05:28:39;;;;;;;9.02;3.22;;;7.90;98.40;;;;;;5062684;28;20029;-48
2022/01/23 05:31:05;;;;;;;5.35;3.10;;;7.90;98.40;;;;;;5060410;28;20048;-48
2022/01/23 05:33:31;;;;;;;8.98;3.08;;;7.90;98.40;;;;;;5058573;28;20033;-48
2022/01/23 05:35:56;;;;;;;5.45;2.65;;;7.90;98.40;;;;;;5062723;28;20506;-48
2022/01/23 05:38:22;;;;;;;5.95;3.42;;;7.90;98.70;;;;;;5064122;28;20369;-47
2022/01/23 05:40:55;;;;;;;5.93;3.25;;;7.90;98.40;;;;;;5063446;28;20081;-48
2022/01/23 05:43:21;;;;;;;5.22;2.28;;;7.90;98.40;;;;;;5058848;28;20111;-48
2022/01/23 05:45:47;;;;;;;6.00;2.92;;;7.90;98.40;;;;;;5060121;28;20112;-48
2022/01/23 05:48:12;;;;;;;6.05;2.85;;;7.90;98.40;;;;;;5060870;28;20112;-48
2022/01/23 05:50:38;;;;;;;5.57;3.55;;;7.90;98.40;;;;;;5058621;28;20029;-48
2022/01/23 05:53:04;;;;;;;7.15;2.92;;;7.90;98.40;;;;;;5061966;28;20064;-48
2022/01/23 05:55:29;;;;;;;7.88;3.65;;;7.90;98.40;;;;;;5061108;28;20032;-48
2022/01/23 05:57:55;;;;;;;10.95;3.95;;;7.90;98.40;;;;;;5064140;28;20028;-48
2022/01/23 06:00:21;;;;;;;7.45;3.60;;;7.90;98.50;;;;;;5060379;28;20033;-48
2022/01/23 06:02:46;;;;;;;6.05;2.75;;;7.90;98.50;;;;;;5052579;28;20025;-47
2022/01/23 06:05:12;;;;;;;6.47;3.03;;;7.90;98.40;;;;;;5063407;28;20361;-48
2022/01/23 06:07:38;;;;;;;6.57;3.20;;;7.90;98.50;;;;;;5063255;28;20104;-48
2022/01/23 06:10:07;;;;;;;6.90;3.55;;;7.90;98.40;;;;;;5061893;28;20017;-48
2022/01/23 06:12:33;;;;;;;6.45;3.10;;;7.90;98.40;;;;;;5059258;28;20028;-48
2022/01/23 06:14:59;;;;;;;5.30;3.28;;;7.90;98.40;;;;;;5063851;28;20032;-47
2022/01/23 06:17:24;;;;;;;5.95;3.58;;;7.90;98.50;;;;;;5056605;28;20149;-48
2022/01/23 06:19:50;;;;;;;7.70;3.60;;;7.90;98.50;;;;;;5063684;28;20362;-48
2022/01/23 06:22:16;;;;;;;7.40;4.00;;;7.90;98.40;;;;;;5057555;28;20377;-48
2022/01/23 06:24:47;;;;;;;6.90;3.50;;;7.90;98.80;;;;;;5063498;28;20325;-48
2022/01/23 06:27:12;;;;;;;7.47;3.83;;;7.90;98.50;;;;;;5063633;28;20020;-47
2022/01/23 06:29:41;;;;;;;8.90;4.43;;;7.90;98.50;;;;;;5061287;28;20037;-48
2022/01/23 06:32:07;;;;;;;8.50;3.70;;;7.90;98.50;;;;;;5056930;28;20045;-48
2022/01/23 06:34:33;;;;;;;9.82;3.28;;;7.90;98.50;;;;;;5063399;28;20032;-47
2022/01/23 06:36:59;;;;;;;6.85;3.95;;;7.90;98.50;;;;;;5061794;28;20134;-48
2022/01/23 06:39:25;;;;;;;9.82;3.80;;;7.90;98.50;;;;;;5061052;28;20027;-47
2022/01/23 06:41:51;;;;;;;9.00;4.50;;;7.90;98.60;;;;;;5060328;28;20029;-48
2022/01/23 06:44:17;;;;;;;7.93;4.07;;;7.90;98.60;;;;;;5060249;28;20016;-48
2022/01/23 06:46:43;;;;;;;10.30;4.25;;;7.90;98.60;;;;;;5058745;28;20025;-48
2022/01/23 06:49:10;;;;;;;8.85;3.97;;;7.90;98.50;;;;;;5060757;28;20031;-48
2022/01/23 06:51:36;;;;;;;7.03;4.28;;;7.90;98.60;;;;;;5057668;28;20040;-48
2022/01/23 06:54:03;;;;;;;11.02;4.82;;;7.90;98.60;;;;;;5055102;28;20349;-48
2022/01/23 06:56:28;;;;;;;14.45;6.95;;;7.90;98.60;;;;;;5060411;28;20037;-48
2022/01/23 06:58:54;;;;;;;11.90;5.85;;;7.90;98.60;;;;;;5060769;28;20028;-47
2022/01/23 07:01:20;;;;;;;8.77;4.25;;;7.90;98.60;;;;;;5058854;28;20052;-48
2022/01/23 07:03:46;;;;;;;9.25;4.03;;;7.90;98.60;;;;;;5053504;28;20028;-48
2022/01/23 07:06:11;;;;;;;8.55;3.63;;;7.90;98.60;;;;;;5062808;28;20055;-47
2022/01/23 07:08:37;;;;;;;8.07;3.80;;;7.90;98.50;;;;;;5060589;28;20060;-48
2022/01/23 07:11:03;;;;;;;7.22;3.60;;;7.90;98.60;;;;;;5061220;28;20041;-48
2022/01/23 07:13:28;;;;;;;7.88;3.65;;;7.90;98.60;;;;;;5061789;28;20024;-47
2022/01/23 07:15:54;;;;;;;8.60;3.22;;;7.90;98.50;;;;;;5057975;28;20529;-47
2022/01/23 07:18:21;;;;;;;6.10;3.33;;;7.90;98.60;;;;;;5058215;28;20025;-48
2022/01/23 07:20:47;;;;;;;5.78;3.35;;;7.90;98.60;;;;;;5060172;28;20111;-48
2022/01/23 07:23:13;;;;;;;7.85;3.83;;;7.90;98.60;;;;;;5060463;28;20036;-48
2022/01/23 07:25:41;;;;;;;8.95;3.92;;;7.90;98.50;;;;;;5059768;28;20032;-47
2022/01/23 07:28:12;;;;;;;9.57;4.07;;;7.90;98.60;;;;;;5056795;28;20033;-48
2022/01/23 07:30:44;;;;;;;5.70;4.05;;;7.90;98.60;;;;;;5060268;28;20021;-48
2022/01/23 07:33:10;;;;;;;13.43;4.47;;;7.90;98.60;;;;;;5053619;28;20446;-48
2022/01/23 07:35:35;;;;;;;8.05;4.78;;;7.90;98.60;;;;;;5058808;28;20037;-48
2022/01/23 07:38:01;;;;;;;8.90;4.53;;;7.90;98.50;;;;;;5058682;28;20025;-48
2022/01/23 07:40:27;;;;;;;11.93;5.15;;;7.90;98.50;;;;;;5060751;28;20053;-47
2022/01/23 07:42:52;;;;;;;10.15;4.05;;;7.90;98.50;;;;;;5058453;28;20025;-48
2022/01/23 07:45:18;;;;;;;7.90;3.70;;;7.90;98.60;;;;;;5061959;28;20093;-48
2022/01/23 07:47:44;;;;;;;11.90;3.80;;;7.90;98.60;;;;;;5054005;28;20079;-48
2022/01/23 07:50:11;;;;;;;7.20;3.53;;;7.90;98.50;;;;;;5059627;28;20028;-48
2022/01/23 07:52:38;;;;;;;6.03;3.58;;;7.90;98.60;;;;;;5057708;28;20033;-48
2022/01/23 07:55:08;;;;;;;9.82;4.43;;;7.90;98.60;;;;;;5059828;28;20021;-48
2022/01/23 07:57:34;;;;;;;8.13;3.53;;;7.90;98.60;;;;;;5057115;28;20047;-48
2022/01/23 08:00:00;;;;;;;13.02;4.20;;;7.90;98.60;;;;;;5061198;28;20024;-48
2022/01/23 08:02:26;;;;;;;8.20;4.68;;;7.90;98.60;;;;;;5054147;28;20059;-47
2022/01/23 08:04:52;;;;;;;14.75;5.60;;;7.90;98.60;;;;;;5058384;28;20551;-47
2022/01/23 08:09:59;;;;;;;9.85;4.57;;;7.90;98.60;;;;;;5061064;28;20098;-47
2022/01/23 08:12:26;;;;;;;11.93;4.93;;;7.90;98.60;;;;;;5058666;28;20067;-48
2022/01/23 08:14:53;;;;;;;10.07;4.70;;;7.90;98.60;;;;;;5057945;28;20025;-48
2022/01/23 08:17:19;;;;;;;17.13;6.65;;;7.90;98.70;;;;;;5057784;28;20036;-48
2022/01/23 08:19:45;;;;;;;20.02;8.57;;;7.90;98.60;;;;;;5059315;28;20031;-48
2022/01/23 08:22:11;;;;;;;13.90;5.88;;;7.90;98.60;;;;;;5059993;28;20100;-48
2022/01/23 08:24:37;;;;;;;15.43;5.90;;;7.90;98.60;;;;;;5059905;28;20549;-47
2022/01/23 08:27:03;;;;;;;18.33;7.00;;;7.90;98.60;;;;;;5057572;28;20056;-48
2022/01/23 08:29:28;;;;;;;16.90;7.10;;;7.90;98.60;;;;;;5060822;28;20029;-48
2022/01/23 08:31:54;;;;;;;14.65;6.32;;;7.90;98.70;;;;;;5057463;28;20489;-48
2022/01/23 08:34:20;;;;;;;19.33;5.07;;;7.90;98.70;;;;;;5058360;28;20017;-47
2022/01/23 08:36:45;;;;;;;15.90;5.35;;;7.90;98.70;;;;;;5055189;28;20040;-48
2022/01/23 08:39:12;;;;;;;12.13;4.53;;;7.90;99.00;;;;;;5058736;28;20025;-48
2022/01/23 08:41:49;;;;;;;11.07;5.18;;;7.90;98.70;;;;;;5060106;28;20063;-48
2022/01/23 08:44:26;;;;;;;14.55;5.53;;;7.90;98.70;;;;;;5059473;28;20446;-48
2022/01/23 08:46:52;;;;;;;12.55;5.55;;;7.90;98.70;;;;;;5055843;28;20044;-47
2022/01/23 08:49:20;;;;;;;11.15;4.75;;;7.90;98.70;;;;;;5059402;28;20021;-48
2022/01/23 08:51:47;;;;;;;14.48;5.15;;;7.90;98.70;;;;;;5058366;28;20044;-48
2022/01/23 08:54:13;;;;;;;12.52;4.43;;;7.90;98.70;;;;;;5059203;28;20497;-48
2022/01/23 08:56:39;;;;;;;9.77;4.38;;;7.90;98.70;;;;;;5064450;28;20036;-48
2022/01/23 08:59:05;;;;;;;10.68;5.03;;;7.90;98.70;;;;;;5061224;28;20074;-48
2022/01/23 09:01:32;;;;;;;10.65;4.72;;;7.90;98.70;;;;;;5062515;28;20500;-48
2022/01/23 09:03:57;;;;;;;14.60;5.95;;;8.00;98.70;;;;;;5058997;28;20041;-48
2022/01/23 09:06:23;;;;;;;13.45;5.57;;;7.90;98.70;;;;;;5059638;28;20036;-48
2022/01/23 09:08:51;;;;;;;9.05;4.43;;;7.90;98.80;;;;;;5064446;28;20012;-48
2022/01/23 09:14:05;;;;;;;13.55;5.88;;;8.00;98.80;;;;;;5063805;28;20125;-47
2022/01/23 09:16:31;;;;;;;15.32;6.25;;;8.00;98.80;;;;;;5055279;28;20031;-47
2022/01/23 09:18:57;;;;;;;10.68;4.75;;;8.00;98.80;;;;;;5056676;28;20385;-48
2022/01/23 09:21:22;;;;;;;10.07;4.55;;;7.90;98.80;;;;;;5063930;28;20039;-48
2022/01/23 09:23:48;;;;;;;11.63;4.45;;;8.00;98.80;;;;;;5063251;28;20029;-48
2022/01/23 09:26:17;;;;;;;13.38;4.78;;;8.00;98.80;;;;;;5062715;28;20029;-48
2022/01/23 09:28:45;;;;;;;11.38;4.53;;;8.00;98.80;;;;;;5061114;28;20105;-47
2022/01/23 09:31:24;;;;;;;12.60;5.07;;;8.00;98.80;;;;;;5062448;28;20040;-48
2022/01/23 09:33:50;;;;;;;11.30;4.80;;;8.00;98.80;;;;;;5059569;28;20321;-47
2022/01/23 09:36:15;;;;;;;15.27;5.10;;;8.00;98.80;;;;;;5061786;28;20445;-48
2022/01/23 09:38:41;;;;;;;9.82;4.13;;;8.00;98.80;;;;;;5059637;28;20025;-48
2022/01/23 09:41:10;;;;;;;15.88;5.57;;;8.00;98.80;;;;;;5062585;28;20171;-48
2022/01/23 09:43:39;;;;;;;11.05;4.70;;;8.00;98.80;;;;;;5061059;28;20291;-48
2022/01/23 09:46:07;;;;;;;13.67;5.03;;;8.00;98.80;;;;;;5062482;28;20035;-48
2022/01/23 09:48:34;;;;;;;11.93;4.75;;;8.00;98.90;;;;;;5059206;28;20079;-48
2022/01/23 09:51:01;;;;;;;12.75;4.53;;;8.00;98.80;;;;;;5062450;28;20481;-48
2022/01/23 09:53:28;;;;;;;10.50;4.57;;;8.00;98.80;;;;;;5061178;28;20040;-48
2022/01/23 09:55:59;;;;;;;8.38;4.15;;;8.00;98.80;;;;;;5062254;28;20111;-48
2022/01/23 09:58:25;;;;;;;9.55;4.60;;;8.00;99.10;;;;;;5062426;28;20029;-48
2022/01/23 10:00:51;;;;;;;14.20;5.50;;;8.00;98.80;;;;;;5060716;28;20107;-48
2022/01/23 10:03:19;;;;;;;9.80;4.65;;;8.00;98.80;;;;;;5057704;28;20398;-48
2022/01/23 10:05:48;;;;;;;14.30;5.07;;;8.00;98.90;;;;;;5060148;28;20043;-48
2022/01/23 10:08:15;;;;;;;17.95;4.97;;;8.00;98.90;;;;;;5062513;28;20032;-48
2022/01/23 10:10:41;;;;;;;10.25;4.70;;;8.00;98.90;;;;;;5063922;28;20040;-47
2022/01/23 10:13:06;;;;;;;15.50;5.28;;;8.00;98.90;;;;;;5060975;28;20029;-48
2022/01/23 10:15:33;;;;;;;12.23;5.20;;;8.00;98.90;;;;;;5062291;28;20083;-48
2022/01/23 10:18:00;;;;;;;11.52;5.30;;;8.00;98.90;;;;;;5059260;28;20043;-48
2022/01/23 10:20:26;;;;;;;11.13;4.20;;;8.00;98.90;;;;;;5060033;28;20398;-48
2022/01/23 10:22:54;;;;;;;14.48;5.95;;;8.10;98.90;;;;;;5062499;28;20320;-48
2022/01/23 10:25:23;;;;;;;15.80;5.57;;;8.10;98.90;;;;;;5061034;28;20028;-47
2022/01/23 10:28:04;;;;;;;8.70;4.70;;;8.10;98.90;;;;;;5059659;28;20406;-48
2022/01/23 10:30:43;;;;;;;14.85;5.13;;;8.00;98.90;;;;;;5062723;28;20029;-48
2022/01/23 10:33:21;;;;;;;12.97;5.27;;;8.00;98.90;;;;;;5058952;28;20036;-47
2022/01/23 10:36:01;;;;;;;11.60;5.47;;;8.10;99.00;;;;;;5061863;28;20021;-48
2022/01/23 10:38:41;;;;;;;14.70;5.00;;;8.00;98.90;;;;;;5061447;28;20108;-48
2022/01/23 10:47:45;;;;;;;12.15;4.82;;;8.10;99.00;;;;;;5063442;28;20082;-48
2022/01/23 10:50:07;;;;;;;17.10;5.28;;;8.10;99.00;;;;;;5054980;28;20049;-48
2022/01/23 10:52:36;;;;;;;15.65;6.13;;;8.10;99.00;;;;;;5059985;28;20033;-48
2022/01/23 10:55:05;;;;;;;13.52;5.80;;;8.10;99.00;;;;;;5061106;28;20100;-48
2022/01/23 10:57:38;;;;;;;14.32;5.43;;;8.10;99.00;;;;;;5060495;28;20032;-48
2022/01/23 11:00:07;;;;;;;7.78;4.00;;;8.10;99.00;;;;;;5060585;28;20052;-48
2022/01/23 11:02:38;;;;;;;11.63;4.25;;;8.10;99.10;;;;;;5058241;28;20110;-48
2022/01/23 11:05:07;;;;;;;10.80;4.40;;;8.10;99.10;;;;;;5055599;28;20082;-48
2022/01/23 11:07:34;;;;;;;8.93;4.13;;;8.10;99.10;;;;;;5059596;28;20033;-47
2022/01/23 11:10:02;;;;;;;17.42;5.57;;;8.10;99.10;;;;;;5061814;28;20017;-48
2022/01/23 11:18:00;;;;;;;11.52;4.05;;;8.10;99.10;;;;;;5060027;28;20094;-48
2022/01/23 11:20:35;;;;;;;10.98;4.43;;;8.10;99.10;;;;;;5057760;28;20127;-47
2022/01/23 11:23:19;;;;;;;11.63;5.68;;;8.10;99.00;;;;;;5060592;28;20035;-48
2022/01/23 11:25:56;;;;;;;10.85;4.32;;;8.10;99.10;;;;;;5061485;28;20025;-48
2022/01/23 11:28:41;;;;;;;11.00;4.65;;;8.20;99.20;;;;;;5060137;28;20031;-48
2022/01/23 11:31:11;;;;;;;8.88;4.30;;;8.20;99.10;;;;;;5059664;28;20037;-47
2022/01/23 11:33:37;;;;;;;;;;;8.20;99.10;;;;;;5055364;28;20033;-47
2022/01/23 11:36:04;;;;;;;12.95;5.03;;;8.20;99.10;;;;;;5060188;28;20245;-48
2022/01/23 11:38:30;;;;;;;14.13;5.95;;;8.20;99.20;;;;;;5060967;28;20079;-48
2022/01/23 11:54:45;;;;;;;5.45;2.45;;;8.20;99.20;;;;;;5057436;28;20036;-48
2022/01/23 11:57:33;;;;;;;7.75;3.17;;;8.20;99.20;;;;;;5059838;28;20013;-48
2022/01/23 12:00:00;;;;;;;9.30;3.83;;;8.20;99.20;;;;;;5062206;28;20035;-48
2022/01/23 12:02:28;;;;;;;5.50;3.08;;;8.20;99.20;;;;;;5057636;28;20460;-48
2022/01/23 12:07:39;;;;;;;10.07;4.40;;;8.20;99.20;;;;;;5062429;28;20028;-48
2022/01/23 12:10:36;;;;;;;7.80;3.92;;;8.20;99.20;;;;;;5060018;28;20396;-48
2022/01/23 12:16:22;;;;;;;2.95;2.00;;;8.20;99.20;;;;;;5059117;28;20366;-48
2022/01/23 12:16:32;;;;;;;3.03;1.35;;;8.20;99.50;;;;;;5057085;28;20366;-47
2022/01/23 12:19:22;;;;;;;1.88;1.55;;;8.20;99.20;;;;;;5058533;28;20036;-48
2022/01/23 12:21:49;;;;;;;;;;;8.20;99.20;;;;;;5056381;28;20035;-48
2022/01/23 12:24:17;;;;;;;4.82;1.80;;;8.30;99.20;;;;;;5060756;28;19912;-48
2022/01/23 12:26:43;;;;;;;3.63;2.17;;;8.20;99.20;;;;;;5058942;28;20025;-48
2022/01/23 12:29:22;;;;;;;3.38;2.25;;;8.20;99.20;;;;;;5062163;28;20433;-48
2022/01/23 12:31:48;;;;;;;5.15;2.17;;;8.20;99.20;;;;;;5063996;28;20048;-48
2022/01/23 12:34:14;;;;;;;4.68;2.28;;;8.30;99.20;;;;;;5060332;28;20025;-48
2022/01/23 12:36:43;;;;;;;2.20;1.30;;;8.30;99.20;;;;;;5062049;28;20021;-48
2022/01/23 12:39:09;;;;;;;2.55;1.30;;;8.30;99.20;;;;;;5065239;28;20051;-48
2022/01/23 12:41:52;;;;;;;2.00;1.05;;;8.30;99.40;;;;;;5064795;28;20029;-47
2022/01/23 12:44:24;;;;;;;1.13;0.70;;;8.30;99.20;;;;;;5060533;28;20102;-48
2022/01/23 12:46:51;;;;;;;1.55;1.02;;;8.30;99.10;;;;;;5063574;28;20021;-48
2022/01/23 12:49:28;;;;;;;1.88;1.15;;;8.30;99.20;;;;;;5062865;28;20036;-48
2022/01/23 12:52:16;;;;;;;3.47;1.52;;;8.30;99.10;;;;;;5063812;28;20033;-48
2022/01/23 12:54:48;;;;;;;2.00;1.48;;;8.30;99.10;;;;;;5063019;28;20025;-48
2022/01/23 12:57:37;;;;;;;3.83;2.13;;;8.30;99.10;;;;;;5063295;28;20330;-48
2022/01/23 13:00:21;;;;;;;5.50;1.35;;;8.30;99.10;;;;;;5064120;28;20104;-48
2022/01/23 13:02:50;;;;;;;3.08;1.50;;;8.30;99.00;;;;;;5060715;28;20029;-48
2022/01/23 13:05:17;;;;;;;2.38;1.50;;;8.30;99.10;;;;;;5059085;28;20040;-47
2022/01/23 13:08:01;;;;;;;2.45;1.83;;;8.30;99.10;;;;;;5064336;28;20442;-48
2022/01/23 13:10:55;;;;;;;3.65;2.03;;;8.30;99.10;;;;;;5063283;28;20052;-48
2022/01/23 13:13:47;;;;;;;8.38;2.67;;;8.30;99.10;;;;;;5064580;28;20024;-48
2022/01/23 13:16:39;;;;;;;6.35;2.38;;;8.30;99.00;;;;;;5063023;28;20021;-48
2022/01/23 13:19:22;;;;;;;3.85;1.95;;;8.30;99.00;;;;;;5063250;28;20230;-47
2022/01/23 13:28:34;;;;;;;6.22;2.38;;;8.40;98.90;;;;;;5064873;28;20428;-48
2022/01/23 13:30:23;;;;;;;5.40;2.28;;;8.30;98.80;;;;;;5065494;28;20032;-48
2022/01/23 13:32:51;;;;;;;2.38;1.65;;;8.30;98.90;;;;;;5061595;28;20063;-48
2022/01/23 13:35:19;;;;;;;3.25;2.15;;;8.30;98.80;;;;;;5057104;28;20358;-48
2022/01/23 13:37:54;;;;;;;4.65;2.05;;;8.40;98.80;;;;;;5064358;28;20024;-48
2022/01/23 13:40:25;;;;;;;3.47;2.15;;;8.30;98.80;;;;;;5061975;28;20033;-48
2022/01/23 13:49:53;;;;;;;5.47;2.90;;;8.30;98.70;;;;;;5064965;28;20082;-48
2022/01/23 14:02:24;;;;;;;7.80;2.20;;;8.30;98.70;;;;;;5061357;28;20051;-48
2022/01/23 14:05:03;;;;;;;8.48;3.50;;;8.30;98.70;;;;;;5056929;28;20174;-47
2022/01/23 14:07:30;;;;;;;6.03;2.05;;;8.30;98.60;;;;;;5062322;28;20158;-48
2022/01/23 14:09:59;;;;;;;4.15;2.58;;;8.30;98.60;;;;;;5062518;28;20021;-47
2022/01/23 14:12:26;;;;;;;5.82;2.17;;;8.40;98.50;;;;;;5062815;28;20510;-48
2022/01/23 14:14:54;;;;;;;4.53;2.45;;;8.40;98.40;;;;;;5062462;28;20025;-48
2022/01/23 14:17:22;;;;;;;3.95;1.92;;;8.40;98.50;;;;;;5060767;28;20021;-48
2022/01/23 14:19:57;;;;;;;3.85;1.88;;;8.40;98.40;;;;;;5062426;28;20028;-48
2022/01/23 14:22:44;;;;;;;6.25;2.72;;;8.40;98.40;;;;;;5053679;28;20029;-48
2022/01/23 14:25:16;;;;;;;3.92;2.30;;;8.40;98.50;;;;;;5061555;28;20108;-48
2022/01/23 14:27:44;;;;;;;3.85;2.22;;;8.40;98.50;;;;;;5061099;28;20033;-48
2022/01/23 14:30:19;;;;;;;3.72;2.20;;;8.40;98.50;;;;;;5062859;28;20032;-48
2022/01/23 14:32:49;;;;;;;5.63;2.45;;;8.30;98.40;;;;;;5058438;28;20144;-48
2022/01/23 14:35:25;;;;;;;3.55;1.88;;;8.30;98.50;;;;;;5057696;28;20108;-48
2022/01/23 14:37:52;;;;;;;7.97;3.05;;;8.40;98.40;;;;;;5061388;28;20033;-48
2022/01/23 14:40:27;;;;;;;9.80;2.08;;;8.40;98.40;;;;;;5061702;28;20029;-48
2022/01/23 14:43:09;;;;;;;3.83;2.40;;;8.30;98.50;;;;;;5057208;28;20033;-48
2022/01/23 14:45:38;;;;;;;2.85;1.90;;;8.30;98.40;;;;;;5061434;28;20021;-48
2022/01/23 14:48:05;;;;;;;4.50;2.33;;;8.30;98.50;;;;;;5061392;28;20025;-48
2022/01/23 14:50:34;;;;;;;3.85;2.55;;;8.30;98.40;;;;;;5058499;28;20025;-48
2022/01/23 14:53:15;;;;;;;3.80;2.42;;;8.30;98.40;;;;;;5059783;28;20116;-47
2022/01/23 14:55:57;;;;;;;10.63;3.58;;;8.30;98.50;;;;;;5062636;28;20025;-48
2022/01/23 14:58:23;;;;;;;18.77;6.55;;;8.30;98.40;;;;;;5061799;28;20067;-48
2022/01/23 15:00:56;;;;;;;9.27;2.88;;;8.30;98.40;;;;;;5060335;28;20033;-48
2022/01/23 15:03:22;;;;;;;3.40;2.30;;;8.30;98.40;;;;;;5056407;28;20492;-47
2022/01/23 15:05:48;;;;;;;3.80;2.28;;;8.30;98.40;;;;;;5058532;28;20377;-48
2022/01/23 15:08:14;;;;;;;4.63;2.55;;;8.30;98.30;;;;;;5061547;28;20028;-48
2022/01/23 15:10:44;;;;;;;4.05;2.00;;;8.30;98.30;;;;;;5060908;28;20537;-47
2022/01/23 15:13:11;;;;;;;4.20;2.13;;;8.30;98.40;;;;;;5055643;28;20037;-48
2022/01/23 15:15:37;;;;;;;5.25;2.60;;;8.30;98.30;;;;;;5060777;28;20462;-48
2022/01/23 15:18:04;;;;;;;6.70;2.72;;;8.30;98.20;;;;;;5056841;28;20036;-48
2022/01/23 15:20:31;;;;;;;3.17;2.00;;;8.30;98.20;;;;;;5058248;28;20488;-48
2022/01/23 15:22:57;;;;;;;6.13;2.75;;;8.30;98.20;;;;;;5057080;28;20028;-48
2022/01/23 15:25:24;;;;;;;8.82;2.75;;;8.30;98.30;;;;;;5058756;28;20455;-48
2022/01/23 15:27:50;;;;;;;4.78;2.63;;;8.30;98.20;;;;;;5061167;28;20178;-48
2022/01/23 15:30:16;;;;;;;3.50;2.22;;;8.30;98.20;;;;;;5057400;28;20119;-47
2022/01/23 15:32:44;;;;;;;3.55;2.10;;;8.40;98.20;;;;;;5061588;28;20183;-48
2022/01/23 15:35:11;;;;;;;4.50;2.30;;;8.30;98.20;;;;;;5062116;28;20024;-48
2022/01/23 15:37:37;;;;;;;5.88;2.67;;;8.30;98.20;;;;;;5055828;28;20064;-48
2022/01/23 15:40:04;;;;;;;4.18;2.30;;;8.30;98.20;;;;;;5059585;28;20044;-47
2022/01/23 15:42:30;;;;;;;3.35;2.33;;;8.30;98.10;;;;;;5058298;28;20358;-48
2022/01/23 15:44:56;;;;;;;20.98;3.30;;;8.30;98.10;;;;;;5061925;28;20028;-48
2022/01/23 15:47:21;;;;;;;6.70;2.80;;;8.30;98.20;;;;;;5061644;28;20078;-48
2022/01/23 15:49:47;;;;;;;9.07;2.88;;;8.30;98.20;;;;;;5059521;28;20044;-47
2022/01/23 15:52:13;;;;;;;5.72;3.08;;;8.30;98.10;;;;;;5055699;28;20041;-48
2022/01/23 15:54:39;;;;;;;3.97;2.33;;;8.30;98.10;;;;;;5061314;28;20052;-48
2022/01/23 15:57:07;;;;;;;8.32;3.00;;;8.30;98.10;;;;;;5059731;28;20120;-48
2022/01/23 15:59:33;;;;;;;5.40;2.53;;;8.30;98.10;;;;;;5060845;28;20060;-47
2022/01/23 16:01:58;;;;;;;4.97;2.65;;;8.30;98.10;;;;;;5055656;28;20032;-47
2022/01/23 16:04:24;;;;;;;3.58;2.13;;;8.30;98.00;;;;;;5057457;28;20123;-48
2022/01/23 16:06:50;;;;;;;5.68;3.22;;;8.30;98.10;;;;;;5053929;28;20089;-48
2022/01/23 16:09:16;;;;;;;9.52;3.88;;;8.30;98.10;;;;;;5062064;28;20092;-48
2022/01/23 16:11:42;;;;;;;7.43;2.35;;;8.30;98.00;;;;;;5059018;28;20410;-48
2022/01/23 16:14:08;;;;;;;5.00;2.75;;;8.30;98.00;;;;;;5059517;28;20040;-48
2022/01/23 16:16:34;;;;;;;8.77;3.83;;;8.30;98.00;;;;;;5058613;28;20029;-48